createdAt,value
2019-03-10T00:00:32.334Z,100066.88
2019-03-10T00:01:08.001Z,100069.66
2019-03-10T00:01:43.439Z,100075.96
2019-03-10T00:02:18.868Z,100067.33
2019-03-10T00:02:54.320Z,100071.01
2019-03-10T00:03:30.031Z,100068.48
2019-03-10T00:04:05.417Z,100071.20
2019-03-10T00:04:41.130Z,100074.19
2019-03-10T00:05:16.787Z,100075.03
2019-03-10T00:05:52.480Z,100071.27
2019-03-10T00:06:27.951Z,100062.45
2019-03-10T00:07:03.429Z,100063.05
2019-03-10T00:07:38.834Z,100063.05
2019-03-10T00:08:14.270Z,100073.15
2019-03-10T00:08:49.662Z,100067.97
2019-03-10T00:09:25.190Z,100070.02
2019-03-10T00:10:00.670Z,100063.33
2019-03-10T00:10:36.353Z,100062.20
2019-03-10T00:11:11.762Z,100062.94
2019-03-10T00:11:47.178Z,100067.77
2019-03-10T00:12:22.887Z,100060.09
2019-03-10T00:12:58.336Z,100065.58
2019-03-10T00:13:34.060Z,100059.45
2019-03-10T00:14:09.468Z,100068.31
2019-03-10T00:14:44.969Z,100058.47
2019-03-10T00:15:20.483Z,100051.30
2019-03-10T00:15:55.935Z,100053.55
2019-03-10T00:16:31.409Z,100052.90
2019-03-10T00:17:06.907Z,100061.20
2019-03-10T00:17:42.576Z,100055.37
2019-03-10T00:18:17.981Z,100063.72
2019-03-10T00:18:53.706Z,100051.09
2019-03-10T00:19:29.423Z,100064.26
2019-03-10T00:20:05.344Z,100057.79
2019-03-10T00:20:40.944Z,100063.84
2019-03-10T00:21:16.644Z,100066.63
2019-03-10T00:21:52.113Z,100062.69
2019-03-10T00:22:28.168Z,100055.88
2019-03-10T00:23:03.851Z,100044.68
2019-03-10T00:23:39.841Z,100047.94
2019-03-10T00:24:15.544Z,100056.49
2019-03-10T00:24:50.945Z,100051.38
2019-03-10T00:25:26.382Z,100049.88
2019-03-10T00:26:01.831Z,100053.96
2019-03-10T00:26:37.510Z,100052.13
2019-03-10T00:27:12.910Z,100040.89
2019-03-10T00:27:48.582Z,100041.73
2019-03-10T00:28:24.039Z,100047.41
2019-03-10T00:28:59.841Z,100050.05
2019-03-10T00:29:35.348Z,100054.05
2019-03-10T00:30:10.760Z,100042.86
2019-03-10T00:30:46.192Z,100042.63
2019-03-10T00:31:21.575Z,100043.19
2019-03-10T00:31:57.059Z,100039.25
2019-03-10T00:32:32.555Z,100038.75
2019-03-10T00:33:07.961Z,100044.09
2019-03-10T00:33:43.598Z,100046.65
2019-03-10T00:34:18.986Z,100051.99
2019-03-10T00:34:55.246Z,100038.75
2019-03-10T00:35:30.912Z,100035.38
2019-03-10T00:36:06.615Z,100034.59
2019-03-10T00:36:42.287Z,100037.96
2019-03-10T00:37:17.677Z,100035.00
2019-03-10T00:37:53.383Z,100034.61
2019-03-10T00:38:37.408Z,100035.06
2019-03-10T00:39:44.806Z,100042.58
2019-03-10T00:41:02.760Z,100036.61
2019-03-10T00:42:09.929Z,100029.16
2019-03-10T00:43:26.079Z,100028.43
2019-03-10T00:44:43.500Z,100034.42
2019-03-10T00:46:04.878Z,100040.75
2019-03-10T00:47:42.666Z,100032.45
2019-03-10T00:48:56.274Z,100030.03
2019-03-10T00:50:00.353Z,100035.09
2019-03-10T00:51:07.695Z,100027.78
2019-03-10T00:52:13.022Z,100022.80
2019-03-10T00:52:58.682Z,100024.16
2019-03-10T00:53:34.677Z,100020.36
2019-03-10T00:54:10.072Z,100014.52
2019-03-10T00:54:45.476Z,100012.83
2019-03-10T00:55:20.906Z,100020.34
2019-03-10T00:55:56.363Z,100018.25
2019-03-10T00:56:31.821Z,100020.05
2019-03-10T00:57:07.360Z,100013.22
2019-03-10T00:57:42.756Z,100012.73
2019-03-10T00:58:18.160Z,100015.91
2019-03-10T00:58:53.595Z,100013.08
2019-03-10T00:59:29.312Z,100008.50
2019-03-10T01:00:05.638Z,100009.11
2019-03-10T01:00:41.015Z,100003.69
2019-03-10T01:01:16.404Z,100011.30
2019-03-10T01:01:51.810Z,100007.22
2019-03-10T01:02:27.263Z,100012.00
2019-03-10T01:03:02.841Z,100005.68
2019-03-10T01:03:38.241Z,100011.14
2019-03-10T01:04:13.880Z,100011.62
2019-03-10T01:04:49.282Z,100010.63
2019-03-10T01:05:25.058Z,100015.12
2019-03-10T01:06:00.754Z,100008.80
2019-03-10T01:06:36.442Z,100008.55
2019-03-10T01:07:11.972Z,100008.27
2019-03-10T01:07:47.678Z,100014.88
2019-03-10T01:08:23.110Z,100009.16
2019-03-10T01:08:58.544Z,100004.50
2019-03-10T01:09:34.421Z,100008.46
2019-03-10T01:10:11.307Z,100010.66
2019-03-10T01:10:46.751Z,100008.36
2019-03-10T01:11:22.417Z,100004.42
2019-03-10T01:11:58.118Z,100003.55
2019-03-10T01:12:33.828Z,100006.16
2019-03-10T01:13:09.177Z,100003.94
2019-03-10T01:13:44.570Z,99998.38
2019-03-10T01:14:20.226Z,99996.77
2019-03-10T01:14:55.668Z,99991.52
2019-03-10T01:15:31.783Z,99994.72
2019-03-10T01:16:07.276Z,99988.88
2019-03-10T01:16:43.359Z,99984.69
2019-03-10T01:17:19.566Z,99982.55
2019-03-10T01:17:56.296Z,99982.55
2019-03-10T01:18:33.588Z,99980.86
2019-03-10T01:19:09.237Z,99981.77
2019-03-10T01:19:45.033Z,99987.05
2019-03-10T01:20:20.449Z,99984.41
2019-03-10T01:20:58.074Z,99986.09
2019-03-10T01:21:34.730Z,99974.95
2019-03-10T01:22:10.145Z,99980.61
2019-03-10T01:22:45.606Z,99978.02
2019-03-10T01:23:21.000Z,99988.42
2019-03-10T01:23:56.414Z,99984.38
2019-03-10T01:24:31.855Z,99989.41
2019-03-10T01:25:07.544Z,99985.47
2019-03-10T01:25:43.208Z,99990.39
2019-03-10T01:26:18.974Z,99988.06
2019-03-10T01:26:54.725Z,99985.13
2019-03-10T01:27:30.185Z,99984.29
2019-03-10T01:28:05.854Z,99986.57
2019-03-10T01:28:41.287Z,99985.44
2019-03-10T01:29:16.917Z,99991.06
2019-03-10T01:29:52.532Z,99982.94
2019-03-10T01:30:32.759Z,99981.26
2019-03-10T01:31:45.952Z,99984.38
2019-03-10T01:32:50.958Z,99977.13
2019-03-10T01:33:50.636Z,99982.64
2019-03-10T01:35:06.849Z,99984.37
2019-03-10T01:35:42.994Z,99976.17
2019-03-10T01:36:17.015Z,99978.44
2019-03-10T01:36:52.404Z,99971.79
2019-03-10T01:37:27.840Z,99970.37
2019-03-10T01:38:03.247Z,99976.36
2019-03-10T01:38:38.615Z,99974.73
2019-03-10T01:39:14.000Z,99984.31
2019-03-10T01:39:49.951Z,99984.91
2019-03-10T01:40:25.628Z,99973.86
2019-03-10T01:41:01.295Z,99971.58
2019-03-10T01:41:36.946Z,99964.19
2019-03-10T01:42:12.417Z,99971.11
2019-03-10T01:42:48.074Z,99973.91
2019-03-10T01:43:23.582Z,99964.08
2019-03-10T01:43:59.147Z,99959.41
2019-03-10T01:44:34.548Z,99967.69
2019-03-10T01:45:11.217Z,99971.66
2019-03-10T01:45:46.608Z,99961.44
2019-03-10T01:46:21.994Z,99960.70
2019-03-10T01:46:57.463Z,99961.30
2019-03-10T01:47:32.895Z,99965.95
2019-03-10T01:48:08.556Z,99954.17
2019-03-10T01:48:43.946Z,99934.17
2019-03-10T01:49:19.342Z,99952.35
2019-03-10T01:49:54.770Z,99945.33
2019-03-10T01:50:30.336Z,99944.09
2019-03-10T01:51:06.258Z,99937.23
2019-03-10T01:51:41.670Z,99942.00
2019-03-10T01:52:17.313Z,99944.98
2019-03-10T01:52:52.791Z,99935.75
2019-03-10T01:53:28.290Z,99928.49
2019-03-10T01:54:03.739Z,99931.21
2019-03-10T01:54:39.184Z,99926.43
2019-03-10T01:55:14.674Z,99926.30
2019-03-10T01:55:50.056Z,99925.84
2019-03-10T01:56:26.065Z,99922.05
2019-03-10T01:57:01.498Z,99919.08
2019-03-10T01:57:36.916Z,99921.20
2019-03-10T01:58:12.565Z,99906.19
2019-03-10T01:58:47.975Z,99909.56
2019-03-10T01:59:23.356Z,99910.67
2019-03-10T01:59:58.798Z,99905.61
2019-03-10T02:00:34.197Z,99904.89
2019-03-10T02:01:09.930Z,99902.14
2019-03-10T02:01:45.524Z,99900.56
2019-03-10T02:02:25.779Z,99897.47
2019-03-10T02:02:58.125Z,99896.63
2019-03-10T02:03:33.784Z,99889.44
2019-03-10T02:04:09.759Z,99877.61
2019-03-10T02:04:45.153Z,99875.48
2019-03-10T02:05:21.085Z,99884.53
2019-03-10T02:05:56.824Z,99876.14
2019-03-10T02:06:32.237Z,99878.70
2019-03-10T02:07:07.616Z,99880.84
2019-03-10T02:07:43.048Z,99878.20
2019-03-10T02:08:18.680Z,99872.63
2019-03-10T02:08:54.115Z,99869.08
2019-03-10T02:09:29.530Z,99866.05
2019-03-10T02:10:05.751Z,99867.99
2019-03-10T02:10:41.378Z,99859.96
2019-03-10T02:11:17.019Z,99862.88
2019-03-10T02:11:52.692Z,99857.04
2019-03-10T02:12:28.093Z,99855.00
2019-03-10T02:13:03.763Z,99862.48
2019-03-10T02:13:39.159Z,99860.02
2019-03-10T02:14:14.854Z,99864.29
2019-03-10T02:14:50.243Z,99863.72
2019-03-10T02:15:25.717Z,99857.26
2019-03-10T02:16:01.372Z,99859.06
2019-03-10T02:16:36.757Z,99849.05
2019-03-10T02:17:12.148Z,99850.97
2019-03-10T02:17:47.826Z,99853.69
2019-03-10T02:18:23.216Z,99849.34
2019-03-10T02:18:58.992Z,99843.09
2019-03-10T02:19:34.382Z,99841.80
2019-03-10T02:20:12.086Z,99841.34
2019-03-10T02:20:47.559Z,99843.16
2019-03-10T02:21:23.264Z,99836.05
2019-03-10T02:21:58.742Z,99833.44
2019-03-10T02:22:34.171Z,99838.34
2019-03-10T02:23:09.570Z,99836.30
2019-03-10T02:23:45.206Z,99837.80
2019-03-10T02:24:24.045Z,99833.83
2019-03-10T02:24:58.265Z,99836.56
2019-03-10T02:25:33.664Z,99837.47
2019-03-10T02:26:09.056Z,99842.13
2019-03-10T02:26:44.465Z,99836.87
2019-03-10T02:27:20.169Z,99835.73
2019-03-10T02:27:55.614Z,99823.88
2019-03-10T02:28:30.990Z,99824.59
2019-03-10T02:29:06.631Z,99825.56
2019-03-10T02:29:42.029Z,99817.11
2019-03-10T02:30:18.654Z,99827.03
2019-03-10T02:30:54.043Z,99817.53
2019-03-10T02:31:29.767Z,99816.90
2019-03-10T02:32:05.252Z,99816.05
2019-03-10T02:32:40.885Z,99807.78
2019-03-10T02:33:16.276Z,99807.39
2019-03-10T02:33:51.924Z,99803.79
2019-03-10T02:34:27.402Z,99802.89
2019-03-10T02:35:02.874Z,99793.89
2019-03-10T02:35:38.328Z,99788.33
2019-03-10T02:36:13.681Z,99783.61
2019-03-10T02:36:49.453Z,99780.97
2019-03-10T02:37:25.138Z,99774.83
2019-03-10T02:38:00.599Z,99779.16
2019-03-10T02:38:35.989Z,99778.32
2019-03-10T02:39:11.726Z,99777.15
2019-03-10T02:39:47.109Z,99777.30
2019-03-10T02:40:22.774Z,99767.14
2019-03-10T02:40:58.222Z,99767.14
2019-03-10T02:41:33.666Z,99766.69
2019-03-10T02:42:09.312Z,99767.03
2019-03-10T02:42:44.763Z,99771.46
2019-03-10T02:43:20.147Z,99772.48
2019-03-10T02:43:55.547Z,99769.27
2019-03-10T02:44:30.976Z,99770.89
2019-03-10T02:45:06.655Z,99771.70
2019-03-10T02:45:42.069Z,99771.02
2019-03-10T02:46:17.719Z,99767.38
2019-03-10T02:46:53.131Z,99765.78
2019-03-10T02:47:28.573Z,99760.34
2019-03-10T02:48:04.269Z,99752.52
2019-03-10T02:48:39.695Z,99749.70
2019-03-10T02:49:15.341Z,99744.25
2019-03-10T02:49:50.993Z,99741.79
2019-03-10T02:51:01.067Z,99740.20
2019-03-10T02:51:36.725Z,99740.20
2019-03-10T02:52:12.131Z,99741.22
2019-03-10T02:52:47.535Z,99737.86
2019-03-10T02:53:23.218Z,99728.57
2019-03-10T02:53:58.625Z,99728.57
2019-03-10T02:54:34.058Z,99733.14
2019-03-10T02:55:09.557Z,99734.19
2019-03-10T02:55:45.187Z,99734.64
2019-03-10T02:56:20.579Z,99730.19
2019-03-10T02:56:56.053Z,99731.66
2019-03-10T02:57:31.507Z,99732.23
2019-03-10T02:58:07.260Z,99732.78
2019-03-10T02:58:42.632Z,99731.09
2019-03-10T02:59:18.271Z,99729.02
2019-03-10T02:59:53.699Z,99728.63
2019-03-10T03:00:29.102Z,99731.67
2019-03-10T03:01:04.563Z,99728.42
2019-03-10T03:01:40.150Z,99728.81
2019-03-10T03:02:15.538Z,99727.06
2019-03-10T03:02:50.937Z,99729.20
2019-03-10T03:03:26.451Z,99724.48
2019-03-10T03:04:01.842Z,99719.70
2019-03-10T03:04:37.480Z,99728.36
2019-03-10T03:05:12.888Z,99719.25
2019-03-10T03:05:48.285Z,99717.56
2019-03-10T03:06:23.668Z,99722.16
2019-03-10T03:06:59.146Z,99717.56
2019-03-10T03:07:34.566Z,99717.11
2019-03-10T03:08:09.974Z,99715.98
2019-03-10T03:08:45.634Z,99713.52
2019-03-10T03:09:21.014Z,99714.86
2019-03-10T03:09:56.797Z,99716.67
2019-03-10T03:10:32.834Z,99712.79
2019-03-10T03:11:08.216Z,99707.11
2019-03-10T03:11:43.887Z,99701.99
2019-03-10T03:12:19.549Z,99698.69
2019-03-10T03:12:55.217Z,99691.65
2019-03-10T03:13:30.781Z,99706.92
2019-03-10T03:14:06.184Z,99692.27
2019-03-10T03:14:41.555Z,99690.42
2019-03-10T03:15:16.949Z,99688.89
2019-03-10T03:15:52.407Z,99684.02
2019-03-10T03:16:28.413Z,99683.44
2019-03-10T03:17:03.832Z,99688.14
2019-03-10T03:17:39.222Z,99689.56
2019-03-10T03:18:14.640Z,99680.92
2019-03-10T03:18:50.499Z,99685.31
2019-03-10T03:19:25.952Z,99693.45
2019-03-10T03:20:01.449Z,99687.89
2019-03-10T03:20:36.943Z,99689.47
2019-03-10T03:21:12.619Z,99676.76
2019-03-10T03:21:48.281Z,99676.76
2019-03-10T03:22:23.693Z,99679.73
2019-03-10T03:22:59.126Z,99673.33
2019-03-10T03:23:34.811Z,99675.20
2019-03-10T03:24:10.229Z,99670.41
2019-03-10T03:24:45.641Z,99677.09
2019-03-10T03:25:21.294Z,99668.67
2019-03-10T03:25:57.308Z,99673.06
2019-03-10T03:26:32.748Z,99671.38
2019-03-10T03:27:08.121Z,99662.26
2019-03-10T03:27:43.503Z,99659.91
2019-03-10T03:28:18.909Z,99656.64
2019-03-10T03:28:54.310Z,99652.38
2019-03-10T03:29:30.086Z,99645.13
2019-03-10T03:30:06.291Z,99647.72
2019-03-10T03:30:41.687Z,99650.75
2019-03-10T03:31:17.424Z,99658.40
2019-03-10T03:31:52.919Z,99649.56
2019-03-10T03:32:28.634Z,99655.64
2019-03-10T03:33:04.045Z,99656.59
2019-03-10T03:33:39.603Z,99652.99
2019-03-10T03:34:15.013Z,99655.56
2019-03-10T03:34:50.407Z,99654.52
2019-03-10T03:35:49.238Z,99654.73
2019-03-10T03:36:27.876Z,99645.23
2019-03-10T03:37:03.563Z,99643.49
2019-03-10T03:37:39.210Z,99644.06
2019-03-10T03:38:14.739Z,99646.83
2019-03-10T03:38:59.870Z,99647.31
2019-03-10T03:39:41.743Z,99642.84
2019-03-10T03:40:17.413Z,99631.41
2019-03-10T03:40:59.203Z,99637.98
2019-03-10T03:41:34.835Z,99635.07
2019-03-10T03:42:10.216Z,99629.52
2019-03-10T03:42:45.601Z,99624.95
2019-03-10T03:43:21.020Z,99636.58
2019-03-10T03:43:56.456Z,99626.54
2019-03-10T03:44:32.288Z,99626.48
2019-03-10T03:45:07.696Z,99625.20
2019-03-10T03:45:43.092Z,99626.70
2019-03-10T03:46:18.746Z,99617.60
2019-03-10T03:46:54.157Z,99621.80
2019-03-10T03:47:29.877Z,99615.06
2019-03-10T03:48:05.355Z,99617.38
2019-03-10T03:48:40.765Z,99611.38
2019-03-10T03:49:16.177Z,99605.56
2019-03-10T03:49:52.435Z,99607.88
2019-03-10T03:50:28.008Z,99601.80
2019-03-10T03:51:03.401Z,99600.17
2019-03-10T03:51:38.792Z,99601.28
2019-03-10T03:52:14.187Z,99603.83
2019-03-10T03:52:49.569Z,99597.08
2019-03-10T03:53:25.139Z,99590.78
2019-03-10T03:54:01.196Z,99591.79
2019-03-10T03:54:36.556Z,99588.63
2019-03-10T03:55:12.215Z,99585.94
2019-03-10T03:55:47.707Z,99584.61
2019-03-10T03:56:23.143Z,99575.01
2019-03-10T03:56:58.604Z,99579.11
2019-03-10T03:57:33.988Z,99571.06
2019-03-10T03:58:09.382Z,99566.80
2019-03-10T03:58:44.798Z,99565.31
2019-03-10T03:59:20.304Z,99569.84
2019-03-10T03:59:55.741Z,99561.18
2019-03-10T04:00:31.131Z,99564.52
2019-03-10T04:01:12.817Z,99561.89
2019-03-10T04:01:51.715Z,99557.58
2019-03-10T04:02:44.114Z,99553.91
2019-03-10T04:03:19.497Z,99554.33
2019-03-10T04:03:55.359Z,99547.09
2019-03-10T04:04:30.809Z,99546.63
2019-03-10T04:05:06.475Z,99548.14
2019-03-10T04:05:42.125Z,99547.54
2019-03-10T04:06:17.513Z,99537.55
2019-03-10T04:06:52.973Z,99542.48
2019-03-10T04:07:28.417Z,99534.67
2019-03-10T04:08:03.819Z,99533.56
2019-03-10T04:08:39.205Z,99527.27
2019-03-10T04:09:14.741Z,99527.48
2019-03-10T04:09:50.378Z,99529.80
2019-03-10T04:10:25.794Z,99531.58
2019-03-10T04:11:01.530Z,99528.32
2019-03-10T04:11:37.221Z,99529.80
2019-03-10T04:12:13.205Z,99525.80
2019-03-10T04:12:49.058Z,99528.12
2019-03-10T04:13:24.707Z,99522.20
2019-03-10T04:14:00.097Z,99530.70
2019-03-10T04:14:35.532Z,99527.50
2019-03-10T04:15:10.919Z,99521.55
2019-03-10T04:15:46.646Z,99516.14
2019-03-10T04:16:22.118Z,99509.09
2019-03-10T04:16:57.540Z,99519.02
2019-03-10T04:17:32.946Z,99518.46
2019-03-10T04:18:08.335Z,99514.77
2019-03-10T04:18:43.715Z,99518.08
2019-03-10T04:19:19.523Z,99518.08
2019-03-10T04:19:54.936Z,99517.19
2019-03-10T04:20:30.431Z,99511.30
2019-03-10T04:21:05.796Z,99504.50
2019-03-10T04:21:41.189Z,99504.72
2019-03-10T04:22:16.839Z,99506.68
2019-03-10T04:22:52.231Z,99499.27
2019-03-10T04:23:27.958Z,99500.13
2019-03-10T04:24:03.606Z,99486.60
2019-03-10T04:24:39.010Z,99494.01
2019-03-10T04:25:14.383Z,99493.55
2019-03-10T04:25:50.055Z,99483.56
2019-03-10T04:26:28.560Z,99488.91
2019-03-10T04:27:03.949Z,99487.92
2019-03-10T04:27:39.655Z,99483.44
2019-03-10T04:28:15.008Z,99486.37
2019-03-10T04:28:50.749Z,99487.58
2019-03-10T04:29:26.175Z,99488.42
2019-03-10T04:30:01.836Z,99481.86
2019-03-10T04:30:37.501Z,99475.36
2019-03-10T04:31:13.130Z,99476.04
2019-03-10T04:31:48.506Z,99478.11
2019-03-10T04:32:23.888Z,99481.20
2019-03-10T04:32:59.585Z,99481.42
2019-03-10T04:33:35.217Z,99481.61
2019-03-10T04:34:10.604Z,99481.47
2019-03-10T04:34:46.252Z,99477.59
2019-03-10T04:35:21.654Z,99471.72
2019-03-10T04:35:57.369Z,99481.41
2019-03-10T04:36:33.041Z,99475.14
2019-03-10T04:37:08.419Z,99479.76
2019-03-10T04:37:44.057Z,99476.27
2019-03-10T04:38:19.704Z,99470.16
2019-03-10T04:38:55.386Z,99473.00
2019-03-10T04:39:30.821Z,99466.83
2019-03-10T04:40:06.263Z,99466.84
2019-03-10T04:40:41.655Z,99462.18
2019-03-10T04:41:17.360Z,99459.28
2019-03-10T04:41:52.753Z,99459.28
2019-03-10T04:42:28.173Z,99452.70
2019-03-10T04:43:03.680Z,99452.70
2019-03-10T04:43:39.075Z,99442.38
2019-03-10T04:44:14.792Z,99442.77
2019-03-10T04:44:50.576Z,99440.59
2019-03-10T04:45:26.026Z,99438.86
2019-03-10T04:46:01.665Z,99438.41
2019-03-10T04:46:37.048Z,99432.41
2019-03-10T04:47:12.433Z,99442.99
2019-03-10T04:47:47.811Z,99433.13
2019-03-10T04:48:23.195Z,99433.13
2019-03-10T04:48:58.632Z,99424.09
2019-03-10T04:49:34.146Z,99429.48
2019-03-10T04:50:12.663Z,99423.55
2019-03-10T04:50:48.322Z,99421.06
2019-03-10T04:51:24.223Z,99415.69
2019-03-10T04:51:59.671Z,99413.89
2019-03-10T04:52:35.346Z,99416.98
2019-03-10T04:53:11.003Z,99418.05
2019-03-10T04:53:46.388Z,99420.17
2019-03-10T04:54:39.378Z,99409.05
2019-03-10T04:55:39.645Z,99416.73
2019-03-10T04:56:34.502Z,99413.88
2019-03-10T04:57:14.519Z,99413.88
2019-03-10T04:58:01.719Z,99403.56
2019-03-10T04:58:40.990Z,99407.08
2019-03-10T04:59:16.633Z,99407.08
2019-03-10T04:59:52.420Z,99410.62
2019-03-10T05:00:28.500Z,99416.13
2019-03-10T05:01:03.919Z,99412.94
2019-03-10T05:01:39.336Z,99421.47
2019-03-10T05:02:14.964Z,99411.48
2019-03-10T05:02:50.700Z,99405.53
2019-03-10T05:03:26.070Z,99417.37
2019-03-10T05:04:01.749Z,99404.13
2019-03-10T05:04:37.133Z,99404.13
2019-03-10T05:05:12.776Z,99397.06
2019-03-10T05:05:48.141Z,99391.39
2019-03-10T05:06:23.715Z,99391.39
2019-03-10T05:06:59.185Z,99374.68
2019-03-10T05:07:34.591Z,99374.68
2019-03-10T05:08:09.977Z,99380.34
2019-03-10T05:08:45.434Z,99373.69
2019-03-10T05:09:21.054Z,99373.69
2019-03-10T05:09:56.542Z,99376.48
2019-03-10T05:10:32.017Z,99369.53
2019-03-10T05:11:07.397Z,99369.53
2019-03-10T05:11:42.884Z,99366.89
2019-03-10T05:12:18.261Z,99357.86
2019-03-10T05:12:53.672Z,99367.02
2019-03-10T05:13:29.084Z,99368.75
2019-03-10T05:14:05.131Z,99364.27
2019-03-10T05:14:40.882Z,99364.27
2019-03-10T05:15:16.257Z,99362.46
2019-03-10T05:15:51.907Z,99359.93
2019-03-10T05:16:27.588Z,99359.93
2019-03-10T05:17:03.041Z,99360.23
2019-03-10T05:17:38.699Z,99368.17
2019-03-10T05:18:14.177Z,99365.99
2019-03-10T05:18:49.566Z,99365.99
2019-03-10T05:19:25.251Z,99366.63
2019-03-10T05:20:00.933Z,99368.17
2019-03-10T05:20:36.413Z,99368.17
2019-03-10T05:21:11.807Z,99366.73
2019-03-10T05:21:47.221Z,99366.73
2019-03-10T05:22:22.567Z,99357.92
2019-03-10T05:23:33.649Z,99361.23
2019-03-10T05:24:12.645Z,99367.63
2019-03-10T05:24:48.036Z,99354.00
2019-03-10T05:25:23.450Z,99357.23
2019-03-10T05:25:59.612Z,99353.82
2019-03-10T05:26:35.509Z,99353.82
2019-03-10T05:27:10.880Z,99357.53
2019-03-10T05:27:46.520Z,99355.13
2019-03-10T05:28:21.925Z,99352.53
2019-03-10T05:28:57.644Z,99351.35
2019-03-10T05:29:33.038Z,99354.77
2019-03-10T05:30:10.480Z,99354.77
2019-03-10T05:30:46.465Z,99357.02
2019-03-10T05:31:21.839Z,99357.02
2019-03-10T05:31:57.393Z,99341.56
2019-03-10T05:32:32.779Z,99341.56
2019-03-10T05:33:08.410Z,99334.04
2019-03-10T05:33:44.054Z,99336.61
2019-03-10T05:34:19.694Z,99335.27
2019-03-10T05:34:55.397Z,99332.06
2019-03-10T05:35:31.072Z,99332.06
2019-03-10T05:36:06.459Z,99329.16
2019-03-10T05:36:42.387Z,99327.64
2019-03-10T05:37:17.770Z,99322.65
2019-03-10T05:37:53.145Z,99322.65
2019-03-10T05:38:28.868Z,99318.22
2019-03-10T05:39:05.402Z,99314.54
2019-03-10T05:39:41.055Z,99319.64
2019-03-10T05:40:16.716Z,99322.54
2019-03-10T05:40:52.079Z,99315.42
2019-03-10T05:41:27.511Z,99315.42
2019-03-10T05:42:02.919Z,99322.66
2019-03-10T05:42:38.894Z,99327.58
2019-03-10T05:43:14.619Z,99327.58
2019-03-10T05:43:50.256Z,99318.73
2019-03-10T05:44:25.924Z,99317.04
2019-03-10T05:45:01.621Z,99317.04
2019-03-10T05:45:36.997Z,99314.02
2019-03-10T05:46:12.635Z,99322.62
2019-03-10T05:46:48.272Z,99323.01
2019-03-10T05:47:23.684Z,99323.01
2019-03-10T05:47:59.076Z,99314.52
2019-03-10T05:48:34.732Z,99311.23
2019-03-10T05:49:10.391Z,99318.56
2019-03-10T05:49:45.760Z,99306.50
2019-03-10T05:50:21.153Z,99309.86
2019-03-10T05:50:56.564Z,99312.50
2019-03-10T05:51:31.965Z,99319.57
2019-03-10T05:52:07.732Z,99314.92
2019-03-10T05:52:43.109Z,99314.25
2019-03-10T05:53:18.495Z,99313.06
2019-03-10T05:53:53.860Z,99301.39
2019-03-10T05:54:29.283Z,99295.09
2019-03-10T05:55:04.975Z,99295.09
2019-03-10T05:55:40.342Z,99296.88
2019-03-10T05:56:15.980Z,99302.70
2019-03-10T05:56:51.372Z,99291.14
2019-03-10T05:57:26.761Z,99292.55
2019-03-10T05:58:02.163Z,99292.55
2019-03-10T05:58:37.846Z,99291.47
2019-03-10T05:59:13.214Z,99286.95
2019-03-10T05:59:48.585Z,99287.78
2019-03-10T06:00:24.018Z,99284.20
2019-03-10T06:00:59.424Z,99284.20
2019-03-10T06:01:35.130Z,99276.40
2019-03-10T06:02:10.757Z,99271.88
2019-03-10T06:02:46.148Z,99271.88
2019-03-10T06:03:21.800Z,99279.23
2019-03-10T06:03:57.185Z,99279.23
2019-03-10T06:04:32.830Z,99269.07
2019-03-10T06:05:08.496Z,99269.07
2019-03-10T06:05:44.185Z,99272.03
2019-03-10T06:06:19.799Z,99263.69
2019-03-10T06:06:55.464Z,99264.48
2019-03-10T06:07:31.119Z,99248.44
2019-03-10T06:08:06.486Z,99256.56
2019-03-10T06:08:42.111Z,99255.50
2019-03-10T06:09:17.480Z,99255.50
2019-03-10T06:09:52.852Z,99252.50
2019-03-10T06:10:28.586Z,99254.50
2019-03-10T06:11:04.304Z,99245.45
2019-03-10T06:11:39.941Z,99246.09
2019-03-10T06:12:15.715Z,99245.25
2019-03-10T06:12:51.659Z,99247.80
2019-03-10T06:13:27.042Z,99237.71
2019-03-10T06:14:03.005Z,99237.71
2019-03-10T06:14:38.379Z,99254.44
2019-03-10T06:15:13.799Z,99229.88
2019-03-10T06:15:49.194Z,99231.06
2019-03-10T06:16:24.642Z,99231.06
2019-03-10T06:17:00.079Z,99231.06
2019-03-10T06:17:35.818Z,99225.91
2019-03-10T06:18:13.863Z,99221.59
2019-03-10T06:18:48.295Z,99221.59
2019-03-10T06:19:23.988Z,99221.08
2019-03-10T06:19:59.462Z,99218.23
2019-03-10T06:20:34.951Z,99213.75
2019-03-10T06:21:10.321Z,99208.50
2019-03-10T06:21:45.695Z,99199.05
2019-03-10T06:22:21.062Z,99203.05
2019-03-10T06:22:56.512Z,99203.05
2019-03-10T06:23:32.021Z,99213.20
2019-03-10T06:24:07.396Z,99207.53
2019-03-10T06:24:42.783Z,99201.47
2019-03-10T06:25:18.458Z,99214.10
2019-03-10T06:25:53.828Z,99198.41
2019-03-10T06:26:29.486Z,99195.50
2019-03-10T06:27:04.982Z,99195.50
2019-03-10T06:27:40.474Z,99189.51
2019-03-10T06:28:16.090Z,99189.51
2019-03-10T06:28:51.744Z,99200.08
2019-03-10T06:29:27.152Z,99197.89
2019-03-10T06:30:02.598Z,99177.72
2019-03-10T06:30:38.245Z,99183.13
2019-03-10T06:31:13.624Z,99172.91
2019-03-10T06:31:49.297Z,99172.91
2019-03-10T06:32:24.755Z,99188.64
2019-03-10T06:33:00.178Z,99185.36
2019-03-10T06:33:35.571Z,99185.36
2019-03-10T06:34:10.945Z,99186.03
2019-03-10T06:34:46.665Z,99175.50
2019-03-10T06:35:22.074Z,99175.50
2019-03-10T06:35:57.598Z,99175.33
2019-03-10T06:36:33.209Z,99177.91
2019-03-10T06:37:08.589Z,99177.91
2019-03-10T06:37:44.317Z,99167.02
2019-03-10T06:38:19.941Z,99182.03
2019-03-10T06:38:55.729Z,99170.17
2019-03-10T06:39:31.555Z,99160.47
2019-03-10T06:40:07.444Z,99160.47
2019-03-10T06:40:42.889Z,99159.09
2019-03-10T06:41:18.258Z,99159.09
2019-03-10T06:41:53.927Z,99155.03
2019-03-10T06:42:29.333Z,99162.44
2019-03-10T06:43:04.725Z,99150.00
2019-03-10T06:43:40.095Z,99153.88
2019-03-10T06:44:15.490Z,99146.01
2019-03-10T06:44:50.883Z,99146.01
2019-03-10T06:45:26.321Z,99138.30
2019-03-10T06:46:01.830Z,99136.21
2019-03-10T06:46:37.290Z,99125.92
2019-03-10T06:47:12.678Z,99125.92
2019-03-10T06:47:48.156Z,99130.56
2019-03-10T06:48:23.863Z,99129.25
2019-03-10T06:48:59.566Z,99129.25
2019-03-10T06:49:34.977Z,99126.35
2019-03-10T06:50:12.456Z,99134.44
2019-03-10T06:50:47.904Z,99142.56
2019-03-10T06:51:23.545Z,99130.80
2019-03-10T06:51:59.010Z,99139.41
2019-03-10T06:52:34.676Z,99127.67
2019-03-10T06:53:10.590Z,99120.30
2019-03-10T06:53:45.976Z,99126.97
2019-03-10T06:54:21.357Z,99124.84
2019-03-10T06:54:56.849Z,99120.59
2019-03-10T06:55:32.300Z,99126.06
2019-03-10T06:56:07.994Z,99123.29
2019-03-10T06:56:43.469Z,99111.27
2019-03-10T06:57:18.850Z,99105.73
2019-03-10T06:57:54.245Z,99115.05
2019-03-10T06:58:29.913Z,99112.17
2019-03-10T06:59:05.628Z,99112.17
2019-03-10T06:59:41.317Z,99122.26
2019-03-10T07:00:17.689Z,99115.56
2019-03-10T07:00:53.187Z,99115.56
2019-03-10T07:01:29.229Z,99107.38
2019-03-10T07:02:05.031Z,99106.86
2019-03-10T07:02:40.400Z,99106.86
2019-03-10T07:03:16.052Z,99108.53
2019-03-10T07:03:51.853Z,99112.14
2019-03-10T07:04:27.304Z,99113.23
2019-03-10T07:05:02.766Z,99103.57
2019-03-10T07:05:38.129Z,99104.25
2019-03-10T07:06:13.537Z,99099.19
2019-03-10T07:06:48.997Z,99097.29
2019-03-10T07:07:24.382Z,99103.41
2019-03-10T07:07:59.877Z,99104.48
2019-03-10T07:08:35.248Z,99101.35
2019-03-10T07:09:10.608Z,99096.58
2019-03-10T07:09:45.990Z,99101.61